Time;durP1;ratioP1;P1;durP2;ratioP2;P2;SDS_P1;SDS_P2;PMS_P1;PMS_P2;Temp;Humidity;BMP_temperature;BMP_pressure;BME280_temperature;BME280_humidity;BME280_pressure;Samples;Min_cycle;Max_cycle;Signal;HPM_P1;HPM_P2
2023/01/18 00:01:38;;;;;;;2.00;1.75;;;;;;;;;;5092888;28;20016;-56
2023/01/18 00:04:03;;;;;;;2.08;1.50;;;;;;;;;;5093440;28;20051;-56
2023/01/18 00:06:29;;;;;;;1.55;1.45;;;;;;;;;;5094552;28;20035;-57
2023/01/18 00:08:54;;;;;;;1.40;1.30;;;;;;;;;;5095862;28;20567;-56
2023/01/18 00:11:20;;;;;;;1.90;1.15;;;;;;;;;;5094521;28;20099;-57
2023/01/18 00:13:46;;;;;;;0.95;0.95;;;;;;;;;;5096121;28;20098;-56
2023/01/18 00:16:16;;;;;;;1.52;1.42;;;;;;;;;;5095909;28;20350;-56
2023/01/18 00:18:42;;;;;;;2.03;1.05;;;;;;;;;;5095764;28;20698;-56
2023/01/18 00:21:09;;;;;;;1.60;0.80;;;;;;;;;;5094284;28;20098;-56
2023/01/18 00:23:34;;;;;;;2.13;2.03;;;;;;;;;;5094584;28;20065;-56
2023/01/18 00:26:04;;;;;;;2.10;1.77;;;;;;;;;;5095539;28;20036;-55
2023/01/18 00:28:29;;;;;;;1.50;0.90;;;;;;;;;;5095721;28;20495;-55
2023/01/18 00:30:54;;;;;;;0.38;0.38;;;;;;;;;;5095547;28;20016;-57
2023/01/18 00:33:20;;;;;;;0.35;0.35;;;;;;;;;;5095364;28;20020;-56
2023/01/18 00:36:00;;;;;;;1.00;0.57;;;;;;;;;;5095645;28;20023;-56
2023/01/18 00:38:26;;;;;;;2.10;1.35;;;;;;;;;;5095822;28;20021;-56
2023/01/18 00:40:51;;;;;;;0.52;0.52;;;;;;;;;;5095677;28;20380;-57
2023/01/18 00:46:01;;;;;;;0.00;0.00;;;;;;;;;;5096133;28;20149;-57
2023/01/18 00:48:27;;;;;;;1.05;0.98;;;;;;;;;;5094929;28;20060;-65
2023/01/18 00:50:52;;;;;;;0.57;0.57;;;;;;;;;;5096542;28;20480;-56
2023/01/18 00:53:19;;;;;;;0.00;0.00;;;;;;;;;;5095673;28;20547;-56
2023/01/18 00:55:45;;;;;;;0.75;0.75;;;;;;;;;;5096167;28;20035;-56
2023/01/18 00:58:11;;;;;;;3.00;1.25;;;;;;;;;;5094271;28;20471;-56
2023/01/18 01:00:37;;;;;;;0.00;0.00;;;;;;;;;;5095957;28;20028;-57
2023/01/18 01:03:03;;;;;;;0.13;0.13;;;;;;;;;;5095556;28;20127;-64
2023/01/18 01:08:26;;;;;;;8.00;0.85;;;;;;;;;;5083926;28;20106;-59
2023/01/18 01:10:52;;;;;;;0.45;0.45;;;;;;;;;;5095779;28;20465;-57
2023/01/18 01:27:10;;;;;;;1.67;1.55;;;;;;;;;;5094352;28;20291;-56
2023/01/18 01:29:35;;;;;;;0.00;0.00;;;;;;;;;;5093152;28;20081;-56
2023/01/18 01:32:02;;;;;;;0.90;0.22;;;;;;;;;;5093025;28;20422;-59
2023/01/18 01:34:28;;;;;;;0.20;0.20;;;;;;;;;;5094637;28;20042;-57
2023/01/18 01:36:54;;;;;;;0.63;0.20;;;;;;;;;;5094074;28;20020;-56
2023/01/18 01:39:19;;;;;;;0.00;0.00;;;;;;;;;;5095055;28;20085;-63
2023/01/18 01:41:46;;;;;;;0.57;0.57;;;;;;;;;;5095995;28;20035;-57
2023/01/18 01:44:18;;;;;;;0.00;0.00;;;;;;;;;;5096820;28;20414;-56
2023/01/18 01:46:52;;;;;;;2.67;1.35;;;;;;;;;;5096092;28;20107;-58
2023/01/18 01:49:20;;;;;;;0.15;0.15;;;;;;;;;;5095444;28;20024;-56
2023/01/18 01:51:54;;;;;;;2.08;1.85;;;;;;;;;;5094120;28;20073;-57
2023/01/18 01:54:39;;;;;;;0.00;0.00;;;;;;;;;;5093928;28;20077;-56
2023/01/18 01:57:09;;;;;;;0.00;0.00;;;;;;;;;;5082772;28;20032;-56
2023/01/18 01:59:38;;;;;;;0.00;0.00;;;;;;;;;;5094297;28;20664;-56
2023/01/18 02:02:04;;;;;;;0.00;0.00;;;;;;;;;;5093892;28;20020;-60
2023/01/18 02:04:29;;;;;;;0.00;0.00;;;;;;;;;;5095987;28;20028;-60
2023/01/18 02:06:56;;;;;;;0.08;0.05;;;;;;;;;;5095880;28;20035;-56
2023/01/18 02:09:21;;;;;;;0.00;0.00;;;;;;;;;;5093518;28;20024;-57
2023/01/18 02:11:49;;;;;;;0.52;0.52;;;;;;;;;;5093813;28;20024;-60
2023/01/18 02:14:15;;;;;;;0.00;0.00;;;;;;;;;;5093689;28;20023;-57
2023/01/18 02:16:56;;;;;;;0.35;0.25;;;;;;;;;;5093651;28;20013;-58
2023/01/18 02:19:40;;;;;;;0.10;0.10;;;;;;;;;;5095313;28;20027;-60
2023/01/18 02:22:12;;;;;;;0.00;0.00;;;;;;;;;;5094042;28;20028;-62
2023/01/18 02:25:05;;;;;;;1.00;0.28;;;;;;;;;;5096038;28;20020;-60
2023/01/18 02:27:42;;;;;;;0.00;0.00;;;;;;;;;;5094545;28;20127;-61
2023/01/18 02:30:29;;;;;;;0.03;0.03;;;;;;;;;;5093512;28;20095;-63
2023/01/18 02:33:03;;;;;;;0.00;0.00;;;;;;;;;;5093597;28;20028;-60
2023/01/18 02:35:30;;;;;;;0.68;0.50;;;;;;;;;;5092070;28;20016;-60
2023/01/18 02:37:55;;;;;;;0.00;0.00;;;;;;;;;;5093315;28;20031;-60
2023/01/18 02:40:36;;;;;;;0.00;0.00;;;;;;;;;;5091702;28;20020;-60
2023/01/18 02:48:35;;;;;;;0.30;0.10;;;;;;;;;;5093349;28;20027;-61
2023/01/18 02:51:01;;;;;;;0.00;0.00;;;;;;;;;;5091752;28;20020;-59
2023/01/18 02:53:26;;;;;;;0.00;0.00;;;;;;;;;;5091497;28;20023;-59
2023/01/18 02:56:01;;;;;;;0.03;0.03;;;;;;;;;;5091600;28;20035;-60
2023/01/18 02:58:30;;;;;;;1.35;0.32;;;;;;;;;;5091555;28;20020;-67
2023/01/18 03:01:03;;;;;;;0.00;0.00;;;;;;;;;;5092928;28;20024;-64
2023/01/18 03:03:28;;;;;;;0.00;0.00;;;;;;;;;;5092755;28;20058;-61
2023/01/18 03:05:57;;;;;;;0.00;0.00;;;;;;;;;;5092638;28;20110;-60
2023/01/18 03:08:26;;;;;;;0.00;0.00;;;;;;;;;;5096062;28;20115;-60
2023/01/18 03:11:06;;;;;;;0.00;0.00;;;;;;;;;;5095869;28;20035;-65
2023/01/18 03:13:38;;;;;;;0.00;0.00;;;;;;;;;;5094299;28;20016;-60
2023/01/18 03:16:06;;;;;;;0.00;0.00;;;;;;;;;;5092629;28;20031;-58
2023/01/18 03:18:58;;;;;;;0.00;0.00;;;;;;;;;;5091834;28;20074;-58
2023/01/18 03:21:38;;;;;;;0.00;0.00;;;;;;;;;;5092988;28;20562;-61
2023/01/18 03:24:05;;;;;;;0.00;0.00;;;;;;;;;;5093150;28;20059;-57
2023/01/18 03:26:34;;;;;;;0.00;0.00;;;;;;;;;;5092966;28;20028;-57
2023/01/18 03:34:32;;;;;;;0.00;0.00;;;;;;;;;;5093094;28;20491;-64
2023/01/18 03:37:00;;;;;;;0.00;0.00;;;;;;;;;;5093517;28;20028;-58
2023/01/18 03:39:30;;;;;;;0.00;0.00;;;;;;;;;;5095721;28;20012;-60
2023/01/18 03:41:59;;;;;;;5.75;1.65;;;;;;;;;;5098045;28;20020;-66
2023/01/18 03:44:29;;;;;;;0.00;0.00;;;;;;;;;;5100058;28;20022;-66
2023/01/18 03:46:56;;;;;;;0.00;0.00;;;;;;;;;;5097347;28;20357;-60
2023/01/18 03:49:21;;;;;;;0.00;0.00;;;;;;;;;;5096990;28;20497;-59
2023/01/18 03:51:56;;;;;;;0.00;0.00;;;;;;;;;;5095175;28;20524;-58
2023/01/18 03:54:32;;;;;;;0.00;0.00;;;;;;;;;;5095484;28;20043;-58
2023/01/18 03:57:01;;;;;;;0.00;0.00;;;;;;;;;;5096631;28;20541;-59
2023/01/18 03:59:29;;;;;;;0.00;0.00;;;;;;;;;;5097209;28;20019;-59
2023/01/18 04:01:54;;;;;;;0.00;0.00;;;;;;;;;;5096105;28;20053;-59
2023/01/18 04:04:20;;;;;;;0.00;0.00;;;;;;;;;;5097579;28;20083;-58
2023/01/18 04:06:45;;;;;;;0.00;0.00;;;;;;;;;;5097345;28;20020;-58
2023/01/18 04:09:11;;;;;;;0.00;0.00;;;;;;;;;;5095901;28;20020;-58
2023/01/18 04:11:36;;;;;;;0.00;0.00;;;;;;;;;;5095085;28;20027;-58
2023/01/18 04:14:02;;;;;;;0.00;0.00;;;;;;;;;;5094884;28;20023;-58
2023/01/18 04:16:27;;;;;;;0.20;0.10;;;;;;;;;;5096588;28;20082;-58
2023/01/18 04:18:53;;;;;;;0.10;0.10;;;;;;;;;;5095678;28;20055;-63
2023/01/18 04:21:18;;;;;;;0.00;0.00;;;;;;;;;;5100105;28;20074;-62
2023/01/18 04:23:43;;;;;;;0.00;0.00;;;;;;;;;;5097986;28;20024;-62
2023/01/18 04:26:10;;;;;;;0.00;0.00;;;;;;;;;;5097885;28;20024;-61
2023/01/18 04:28:36;;;;;;;0.00;0.00;;;;;;;;;;5097144;28;20081;-58
2023/01/18 04:31:03;;;;;;;0.00;0.00;;;;;;;;;;5097784;28;20438;-59
2023/01/18 04:33:29;;;;;;;0.00;0.00;;;;;;;;;;5097550;28;20016;-59
2023/01/18 04:35:54;;;;;;;0.00;0.00;;;;;;;;;;5097614;28;20028;-61
2023/01/18 04:38:20;;;;;;;0.00;0.00;;;;;;;;;;5097718;28;20473;-59
2023/01/18 04:40:45;;;;;;;0.00;0.00;;;;;;;;;;5097594;28;20077;-58
2023/01/18 04:43:11;;;;;;;0.25;0.25;;;;;;;;;;5095607;28;20024;-64
2023/01/18 04:45:37;;;;;;;0.10;0.10;;;;;;;;;;5096188;28;20432;-60
2023/01/18 04:48:02;;;;;;;0.00;0.00;;;;;;;;;;5096437;28;20144;-59
2023/01/18 04:50:28;;;;;;;0.43;0.25;;;;;;;;;;5095446;28;20092;-60
2023/01/18 04:52:54;;;;;;;0.00;0.00;;;;;;;;;;5095684;28;20020;-59
2023/01/18 04:55:19;;;;;;;0.00;0.00;;;;;;;;;;5095549;28;20027;-64
2023/01/18 04:57:46;;;;;;;0.08;0.08;;;;;;;;;;5094047;28;20020;-59
2023/01/18 05:00:13;;;;;;;0.00;0.00;;;;;;;;;;5095111;28;20465;-60
2023/01/18 05:02:39;;;;;;;0.00;0.00;;;;;;;;;;5093258;28;20420;-60
2023/01/18 05:05:05;;;;;;;0.65;0.65;;;;;;;;;;5093469;28;20028;-60
2023/01/18 05:07:32;;;;;;;0.00;0.00;;;;;;;;;;5095161;28;20024;-61
2023/01/18 05:10:01;;;;;;;0.00;0.00;;;;;;;;;;5096369;28;20024;-61
2023/01/18 05:12:27;;;;;;;0.10;0.10;;;;;;;;;;5096588;28;20027;-65
2023/01/18 05:14:52;;;;;;;0.10;0.10;;;;;;;;;;5094478;28;20498;-61
2023/01/18 05:17:17;;;;;;;3.30;1.17;;;;;;;;;;5095678;28;20020;-60
2023/01/18 05:19:43;;;;;;;0.00;0.00;;;;;;;;;;5094948;28;20469;-61
2023/01/18 05:22:09;;;;;;;0.00;0.00;;;;;;;;;;5096902;28;20017;-61
2023/01/18 05:24:35;;;;;;;0.00;0.00;;;;;;;;;;5095697;28;20483;-61
2023/01/18 05:27:00;;;;;;;0.00;0.00;;;;;;;;;;5094583;28;20036;-60
2023/01/18 05:29:26;;;;;;;0.00;0.00;;;;;;;;;;5095694;28;20020;-61
2023/01/18 05:31:51;;;;;;;0.10;0.10;;;;;;;;;;5096026;28;20045;-61
2023/01/18 05:34:17;;;;;;;0.00;0.00;;;;;;;;;;5094651;28;20024;-61
2023/01/18 05:36:42;;;;;;;0.00;0.00;;;;;;;;;;5093660;28;20107;-61
2023/01/18 05:39:08;;;;;;;0.10;0.10;;;;;;;;;;5092717;28;20016;-62
2023/01/18 05:41:34;;;;;;;0.00;0.00;;;;;;;;;;5094058;28;20107;-60
2023/01/18 05:43:59;;;;;;;0.00;0.00;;;;;;;;;;5094299;28;20040;-60
2023/01/18 05:46:24;;;;;;;0.08;0.08;;;;;;;;;;5093716;28;20071;-62
2023/01/18 05:48:50;;;;;;;0.00;0.00;;;;;;;;;;5094592;28;20016;-61
2023/01/18 05:51:16;;;;;;;0.00;0.00;;;;;;;;;;5091993;28;20028;-62
2023/01/18 05:53:42;;;;;;;3.20;0.88;;;;;;;;;;5092820;28;20024;-61
2023/01/18 05:56:08;;;;;;;0.10;0.08;;;;;;;;;;5093584;28;20016;-61
2023/01/18 05:58:34;;;;;;;0.25;0.25;;;;;;;;;;5092259;28;20069;-62
2023/01/18 06:00:59;;;;;;;0.10;0.10;;;;;;;;;;5093007;28;20049;-62
2023/01/18 06:03:25;;;;;;;0.00;0.00;;;;;;;;;;5091656;28;20542;-64
2023/01/18 06:05:50;;;;;;;0.13;0.10;;;;;;;;;;5093426;28;20058;-62
2023/01/18 06:08:16;;;;;;;0.10;0.10;;;;;;;;;;5092198;28;20100;-62
2023/01/18 06:10:42;;;;;;;0.00;0.00;;;;;;;;;;5093163;28;20408;-62
2023/01/18 06:13:08;;;;;;;0.00;0.00;;;;;;;;;;5093063;28;20020;-61
2023/01/18 06:15:34;;;;;;;0.57;0.57;;;;;;;;;;5093478;28;20028;-62
2023/01/18 06:17:59;;;;;;;0.00;0.00;;;;;;;;;;5091944;28;20020;-62
2023/01/18 06:20:29;;;;;;;0.00;0.00;;;;;;;;;;5093350;28;20020;-62
2023/01/18 06:22:57;;;;;;;0.00;0.00;;;;;;;;;;5091631;28;20023;-63
2023/01/18 06:25:23;;;;;;;0.43;0.43;;;;;;;;;;5093277;28;20106;-63
2023/01/18 06:27:49;;;;;;;0.00;0.00;;;;;;;;;;5091447;28;20118;-64
2023/01/18 06:30:14;;;;;;;0.00;0.00;;;;;;;;;;5093447;28;20016;-62
2023/01/18 06:32:41;;;;;;;0.00;0.00;;;;;;;;;;5093353;28;20016;-62
2023/01/18 06:35:07;;;;;;;0.00;0.00;;;;;;;;;;5092817;28;20012;-62
2023/01/18 06:37:33;;;;;;;0.00;0.00;;;;;;;;;;5091564;28;20119;-63
2023/01/18 06:39:58;;;;;;;0.00;0.00;;;;;;;;;;5091439;28;20107;-63
2023/01/18 06:42:24;;;;;;;12.65;0.73;;;;;;;;;;5092135;28;20402;-62
2023/01/18 06:44:49;;;;;;;0.47;0.45;;;;;;;;;;5092475;28;20020;-62
2023/01/18 06:47:18;;;;;;;0.00;0.00;;;;;;;;;;5092128;28;20055;-63
2023/01/18 06:49:46;;;;;;;0.00;0.00;;;;;;;;;;5092540;28;20016;-63
2023/01/18 06:52:13;;;;;;;0.10;0.10;;;;;;;;;;5091973;28;20016;-63
2023/01/18 06:54:39;;;;;;;0.00;0.00;;;;;;;;;;5092247;28;20313;-63
2023/01/18 06:57:04;;;;;;;0.05;0.05;;;;;;;;;;5091684;28;20156;-64
2023/01/18 06:59:29;;;;;;;5.25;0.80;;;;;;;;;;5092340;28;20051;-63
2023/01/18 07:01:55;;;;;;;0.22;0.22;;;;;;;;;;5090957;28;20024;-63
2023/01/18 07:04:20;;;;;;;0.00;0.00;;;;;;;;;;5091856;28;20071;-61
2023/01/18 07:06:48;;;;;;;0.00;0.00;;;;;;;;;;5092678;28;20027;-63
2023/01/18 07:09:13;;;;;;;0.70;0.70;;;;;;;;;;5091020;28;20069;-69
2023/01/18 07:11:42;;;;;;;0.00;0.00;;;;;;;;;;5095231;28;20008;-67
2023/01/18 07:14:11;;;;;;;3.72;1.25;;;;;;;;;;5096180;28;20027;-66
2023/01/18 07:16:36;;;;;;;0.00;0.00;;;;;;;;;;5096770;28;20040;-63
2023/01/18 07:19:02;;;;;;;0.00;0.00;;;;;;;;;;5094329;28;20426;-62
2023/01/18 07:21:28;;;;;;;2.83;1.55;;;;;;;;;;5094919;28;20020;-64
2023/01/18 07:23:55;;;;;;;0.00;0.00;;;;;;;;;;5096229;28;20488;-64
2023/01/18 07:26:20;;;;;;;0.00;0.00;;;;;;;;;;5095874;28;20502;-63
2023/01/18 07:28:46;;;;;;;0.00;0.00;;;;;;;;;;5095811;28;20027;-63
2023/01/18 07:31:12;;;;;;;0.00;0.00;;;;;;;;;;5095616;28;20051;-63
2023/01/18 07:33:38;;;;;;;0.05;0.05;;;;;;;;;;5094495;28;20016;-63
2023/01/18 07:36:05;;;;;;;0.10;0.10;;;;;;;;;;5094202;28;20024;-65
2023/01/18 07:38:30;;;;;;;0.00;0.00;;;;;;;;;;5095500;28;20385;-65
2023/01/18 07:40:58;;;;;;;3.40;1.45;;;;;;;;;;5095346;28;20016;-67
2023/01/18 07:43:24;;;;;;;0.00;0.00;;;;;;;;;;5094944;28;20016;-62
2023/01/18 07:45:53;;;;;;;0.00;0.00;;;;;;;;;;5094330;28;20078;-64
2023/01/18 07:48:18;;;;;;;0.00;0.00;;;;;;;;;;5094886;28;20024;-63
2023/01/18 07:50:50;;;;;;;0.08;0.08;;;;;;;;;;5096058;28;20012;-63
2023/01/18 07:53:16;;;;;;;0.00;0.00;;;;;;;;;;5095632;28;20039;-64
2023/01/18 07:55:41;;;;;;;0.00;0.00;;;;;;;;;;5094227;28;20020;-63
2023/01/18 07:58:08;;;;;;;0.00;0.00;;;;;;;;;;5093826;28;20415;-64
2023/01/18 08:00:33;;;;;;;0.00;0.00;;;;;;;;;;5095151;28;20115;-63
2023/01/18 08:02:59;;;;;;;0.00;0.00;;;;;;;;;;5093716;28;20072;-65
2023/01/18 08:05:26;;;;;;;0.00;0.00;;;;;;;;;;5095585;28;20016;-63
2023/01/18 08:07:55;;;;;;;0.22;0.22;;;;;;;;;;5095400;28;20042;-64
2023/01/18 08:10:21;;;;;;;0.00;0.00;;;;;;;;;;5096272;28;20016;-62
2023/01/18 08:12:47;;;;;;;0.00;0.00;;;;;;;;;;5096847;28;20476;-66
2023/01/18 08:15:12;;;;;;;0.00;0.00;;;;;;;;;;5095531;28;20024;-64
2023/01/18 08:17:38;;;;;;;0.00;0.00;;;;;;;;;;5096054;28;20024;-67
2023/01/18 08:20:04;;;;;;;1.35;0.75;;;;;;;;;;5097105;28;20012;-65
2023/01/18 08:22:30;;;;;;;0.15;0.15;;;;;;;;;;5096436;28;20103;-63
2023/01/18 08:24:55;;;;;;;0.80;0.17;;;;;;;;;;5095257;28;20064;-72
2023/01/18 08:27:21;;;;;;;0.00;0.00;;;;;;;;;;5094477;28;20024;-64
2023/01/18 08:29:47;;;;;;;0.00;0.00;;;;;;;;;;5095711;28;20016;-64
2023/01/18 08:32:12;;;;;;;0.00;0.00;;;;;;;;;;5095026;28;20020;-65
2023/01/18 08:34:38;;;;;;;0.00;0.00;;;;;;;;;;5095138;28;20099;-64
2023/01/18 08:37:05;;;;;;;0.00;0.00;;;;;;;;;;5094813;28;20016;-67
2023/01/18 08:39:31;;;;;;;0.15;0.15;;;;;;;;;;5092832;28;20369;-64
2023/01/18 08:41:56;;;;;;;0.00;0.00;;;;;;;;;;5093313;28;20031;-64
2023/01/18 08:44:22;;;;;;;0.00;0.00;;;;;;;;;;5095169;28;20028;-63
2023/01/18 08:46:48;;;;;;;0.00;0.00;;;;;;;;;;5095033;28;20035;-62
2023/01/18 08:49:15;;;;;;;0.00;0.00;;;;;;;;;;5094691;28;20031;-62
2023/01/18 08:51:40;;;;;;;1.85;0.90;;;;;;;;;;5095015;28;20020;-63
2023/01/18 08:54:06;;;;;;;0.70;0.55;;;;;;;;;;5094677;28;20016;-57
2023/01/18 08:56:32;;;;;;;0.00;0.00;;;;;;;;;;5095024;28;20085;-59
2023/01/18 08:58:58;;;;;;;0.00;0.00;;;;;;;;;;5094693;28;20051;-59
2023/01/18 09:01:24;;;;;;;0.03;0.03;;;;;;;;;;5094953;28;20081;-58
2023/01/18 09:03:53;;;;;;;0.30;0.17;;;;;;;;;;5092866;28;20102;-59
2023/01/18 09:06:18;;;;;;;0.00;0.00;;;;;;;;;;5093353;28;20042;-57
2023/01/18 09:08:45;;;;;;;0.03;0.00;;;;;;;;;;5094899;28;20179;-58
2023/01/18 09:11:11;;;;;;;0.00;0.00;;;;;;;;;;5095019;28;20008;-58
2023/01/18 09:13:40;;;;;;;0.00;0.00;;;;;;;;;;5095414;28;20065;-58
2023/01/18 09:16:07;;;;;;;0.28;0.15;;;;;;;;;;5095246;28;20484;-58
2023/01/18 09:18:33;;;;;;;0.00;0.00;;;;;;;;;;5094569;28;20024;-59
2023/01/18 09:21:03;;;;;;;0.00;0.00;;;;;;;;;;5094276;28;20028;-59
2023/01/18 09:23:29;;;;;;;0.00;0.00;;;;;;;;;;5094434;28;20020;-61
2023/01/18 09:26:04;;;;;;;0.00;0.00;;;;;;;;;;5094068;28;20119;-59
2023/01/18 09:28:30;;;;;;;0.65;0.65;;;;;;;;;;5094226;28;20016;-59
2023/01/18 09:30:59;;;;;;;0.00;0.00;;;;;;;;;;5094096;28;20082;-59
2023/01/18 09:33:24;;;;;;;0.00;0.00;;;;;;;;;;5092280;28;20027;-59
2023/01/18 09:35:49;;;;;;;6.38;1.65;;;;;;;;;;5093639;28;20380;-60
2023/01/18 09:38:15;;;;;;;0.95;0.30;;;;;;;;;;5093513;28;20058;-58
2023/01/18 09:40:42;;;;;;;0.00;0.00;;;;;;;;;;5093810;28;20430;-60
2023/01/18 09:43:23;;;;;;;0.55;0.55;;;;;;;;;;5093426;28;20091;-59
2023/01/18 09:45:49;;;;;;;0.00;0.00;;;;;;;;;;5093528;28;20060;-57
2023/01/18 09:48:43;;;;;;;0.93;0.47;;;;;;;;;;5094004;28;20023;-57
2023/01/18 09:51:12;;;;;;;0.08;0.08;;;;;;;;;;5074542;28;20039;-58
2023/01/18 09:53:58;;;;;;;0.10;0.10;;;;;;;;;;5092480;28;20020;-60
2023/01/18 09:56:26;;;;;;;0.52;0.52;;;;;;;;;;5092550;28;20039;-59
2023/01/18 09:58:57;;;;;;;0.00;0.00;;;;;;;;;;5092322;28;20108;-59
2023/01/18 10:01:25;;;;;;;1.02;0.30;;;;;;;;;;5092639;28;20024;-60
2023/01/18 10:04:09;;;;;;;0.00;0.00;;;;;;;;;;5093579;28;20048;-59
2023/01/18 10:06:46;;;;;;;0.30;0.20;;;;;;;;;;5093010;28;20031;-61
2023/01/18 10:09:17;;;;;;;0.13;0.13;;;;;;;;;;5093137;28;20422;-60
2023/01/18 10:11:54;;;;;;;1.65;0.30;;;;;;;;;;5091676;28;20490;-60
2023/01/18 10:14:34;;;;;;;0.00;0.00;;;;;;;;;;5093084;28;20042;-59
2023/01/18 10:17:02;;;;;;;0.00;0.00;;;;;;;;;;5092515;28;20024;-59
2023/01/18 10:19:28;;;;;;;0.00;0.00;;;;;;;;;;5093002;28;20020;-59
2023/01/18 10:22:15;;;;;;;0.38;0.38;;;;;;;;;;5092870;28;20016;-60
2023/01/18 10:24:44;;;;;;;0.00;0.00;;;;;;;;;;5092753;28;20392;-59
2023/01/18 10:27:43;;;;;;;0.40;0.30;;;;;;;;;;5092626;28;20038;-60
2023/01/18 10:30:14;;;;;;;0.55;0.47;;;;;;;;;;5057961;28;20111;-60
2023/01/18 10:32:42;;;;;;;0.57;0.55;;;;;;;;;;5092590;28;20060;-60
2023/01/18 10:35:18;;;;;;;0.22;0.22;;;;;;;;;;5092598;28;20043;-63
2023/01/18 10:37:45;;;;;;;0.00;0.00;;;;;;;;;;5092515;28;20035;-61
2023/01/18 10:40:12;;;;;;;0.65;0.65;;;;;;;;;;5092262;28;20054;-59
2023/01/18 10:42:45;;;;;;;0.00;0.00;;;;;;;;;;5092065;28;20468;-59
2023/01/18 10:45:11;;;;;;;4.38;1.55;;;;;;;;;;5091666;28;20020;-59
2023/01/18 10:47:37;;;;;;;0.10;0.10;;;;;;;;;;5091724;28;20039;-59
2023/01/18 10:50:10;;;;;;;19.27;0.35;;;;;;;;;;5090870;28;20452;-59
2023/01/18 10:52:36;;;;;;;0.03;0.03;;;;;;;;;;5091597;28;20056;-60
2023/01/18 10:55:06;;;;;;;0.57;0.32;;;;;;;;;;5091166;28;20056;-59
2023/01/18 10:57:34;;;;;;;0.43;0.10;;;;;;;;;;5090235;28;20038;-57
2023/01/18 11:00:00;;;;;;;0.00;0.00;;;;;;;;;;5091991;28;20469;-59
2023/01/18 11:02:32;;;;;;;0.70;0.28;;;;;;;;;;5091617;28;20105;-59
2023/01/18 11:05:00;;;;;;;0.80;0.20;;;;;;;;;;5089550;28;20103;-59
2023/01/18 11:07:26;;;;;;;0.00;0.00;;;;;;;;;;5091553;28;20053;-58
2023/01/18 11:09:54;;;;;;;0.00;0.00;;;;;;;;;;5091300;28;20380;-58
2023/01/18 11:12:37;;;;;;;0.00;0.00;;;;;;;;;;5091723;28;20060;-59
2023/01/18 11:15:12;;;;;;;0.00;0.00;;;;;;;;;;5089673;28;20024;-59
2023/01/18 11:17:38;;;;;;;0.15;0.15;;;;;;;;;;5091321;28;20017;-57
2023/01/18 11:20:07;;;;;;;0.43;0.43;;;;;;;;;;5091217;28;20024;-57
2023/01/18 11:22:33;;;;;;;0.08;0.08;;;;;;;;;;5091967;28;20028;-58
2023/01/18 11:24:59;;;;;;;0.00;0.00;;;;;;;;;;5091922;28;20479;-57
2023/01/18 11:27:25;;;;;;;0.00;0.00;;;;;;;;;;5091610;28;20029;-61
2023/01/18 11:29:50;;;;;;;0.00;0.00;;;;;;;;;;5091561;28;20099;-58
2023/01/18 11:32:22;;;;;;;0.22;0.22;;;;;;;;;;5091886;28;20043;-59
2023/01/18 11:34:52;;;;;;;0.00;0.00;;;;;;;;;;5092242;28;20476;-58
2023/01/18 11:37:28;;;;;;;0.00;0.00;;;;;;;;;;5091796;28;20016;-59
2023/01/18 11:39:54;;;;;;;0.15;0.15;;;;;;;;;;5092005;28;20075;-58
2023/01/18 11:42:33;;;;;;;0.00;0.00;;;;;;;;;;5091967;28;20421;-59
2023/01/18 11:45:17;;;;;;;0.00;0.00;;;;;;;;;;5091970;28;20066;-58
2023/01/18 11:48:03;;;;;;;0.00;0.00;;;;;;;;;;5091348;28;20031;-57
2023/01/18 11:50:32;;;;;;;0.22;0.22;;;;;;;;;;5091661;28;20031;-58
2023/01/18 11:52:59;;;;;;;0.25;0.25;;;;;;;;;;5091210;28;20065;-58
2023/01/18 11:55:45;;;;;;;0.00;0.00;;;;;;;;;;5092301;28;20073;-59
2023/01/18 11:58:31;;;;;;;0.00;0.00;;;;;;;;;;5093805;28;20034;-60
2023/01/18 12:01:06;;;;;;;0.00;0.00;;;;;;;;;;5091905;28;20040;-59
2023/01/18 12:03:40;;;;;;;0.00;0.00;;;;;;;;;;5094165;28;20052;-60
2023/01/18 12:06:16;;;;;;;2.28;0.65;;;;;;;;;;5095455;28;20571;-58
2023/01/18 12:09:08;;;;;;;0.25;0.20;;;;;;;;;;5095807;28;20103;-57
2023/01/18 12:11:41;;;;;;;0.22;0.22;;;;;;;;;;5092108;28;20119;-57
2023/01/18 12:14:12;;;;;;;0.00;0.00;;;;;;;;;;5095041;28;20526;-58
2023/01/18 12:16:46;;;;;;;0.00;0.00;;;;;;;;;;5093951;28;20030;-56
2023/01/18 12:19:27;;;;;;;0.10;0.10;;;;;;;;;;5095895;28;20016;-57
2023/01/18 12:22:19;;;;;;;0.00;0.00;;;;;;;;;;5097138;28;20033;-61
2023/01/18 12:24:57;;;;;;;0.00;0.00;;;;;;;;;;5092284;28;20051;-58
2023/01/18 12:27:37;;;;;;;0.00;0.00;;;;;;;;;;5095703;28;20036;-61
2023/01/18 12:30:25;;;;;;;0.43;0.25;;;;;;;;;;5097560;28;20020;-58
2023/01/18 12:33:03;;;;;;;0.00;0.00;;;;;;;;;;5097334;28;20397;-60
2023/01/18 12:35:47;;;;;;;0.00;0.00;;;;;;;;;;5095741;28;20376;-57
2023/01/18 12:38:24;;;;;;;18.40;1.27;;;;;;;;;;5095120;28;20008;-57
2023/01/18 12:41:13;;;;;;;1.02;0.93;;;;;;;;;;5094027;28;20023;-58
2023/01/18 12:43:57;;;;;;;0.10;0.10;;;;;;;;;;5095412;28;20028;-57
2023/01/18 12:46:25;;;;;;;0.00;0.00;;;;;;;;;;5094831;28;20081;-56
2023/01/18 12:48:53;;;;;;;0.00;0.00;;;;;;;;;;5095228;28;20020;-64
2023/01/18 12:51:20;;;;;;;0.20;0.20;;;;;;;;;;5096096;28;20020;-61
2023/01/18 12:53:55;;;;;;;0.15;0.15;;;;;;;;;;5096023;28;20019;-59
2023/01/18 12:56:26;;;;;;;0.00;0.00;;;;;;;;;;5094634;28;20166;-59
2023/01/18 12:58:56;;;;;;;0.13;0.13;;;;;;;;;;5093221;28;20414;-57
2023/01/18 13:01:24;;;;;;;0.00;0.00;;;;;;;;;;5094937;28;20057;-57
2023/01/18 13:03:52;;;;;;;0.00;0.00;;;;;;;;;;5092665;28;20058;-60
2023/01/18 13:06:18;;;;;;;0.10;0.10;;;;;;;;;;5094907;28;20036;-58
2023/01/18 13:08:57;;;;;;;0.10;0.10;;;;;;;;;;5094457;28;20473;-58
2023/01/18 13:11:24;;;;;;;0.00;0.00;;;;;;;;;;5094476;28;20019;-58
2023/01/18 13:14:13;;;;;;;0.00;0.00;;;;;;;;;;5094173;28;20024;-58
2023/01/18 13:16:44;;;;;;;0.70;0.25;;;;;;;;;;5085751;28;20081;-56
2023/01/18 13:19:32;;;;;;;0.03;0.00;;;;;;;;;;5093816;28;20058;-57
2023/01/18 13:22:09;;;;;;;0.00;0.00;;;;;;;;;;5094483;28;20020;-56
2023/01/18 13:24:54;;;;;;;0.47;0.47;;;;;;;;;;5094050;28;20028;-58
2023/01/18 13:27:20;;;;;;;0.15;0.15;;;;;;;;;;5093461;28;20050;-56
2023/01/18 13:29:46;;;;;;;0.00;0.00;;;;;;;;;;5092943;28;20115;-57
2023/01/18 13:32:27;;;;;;;0.10;0.10;;;;;;;;;;5094999;28;20115;-59
2023/01/18 13:35:30;;;;;;;0.00;0.00;;;;;;;;;;5095184;28;20023;-59
2023/01/18 13:37:58;;;;;;;0.00;0.00;;;;;;;;;;5062499;28;20063;-58
2023/01/18 13:40:29;;;;;;;0.00;0.00;;;;;;;;;;5093429;28;20023;-57
2023/01/18 13:42:55;;;;;;;0.00;0.00;;;;;;;;;;5092451;28;20069;-58
2023/01/18 13:45:22;;;;;;;0.35;0.35;;;;;;;;;;5092288;28;20190;-57
2023/01/18 13:47:47;;;;;;;0.00;0.00;;;;;;;;;;5093667;28;20031;-58
2023/01/18 13:50:33;;;;;;;0.00;0.00;;;;;;;;;;5092408;28;20350;-58
2023/01/18 13:53:13;;;;;;;1.35;0.57;;;;;;;;;;5093662;28;20020;-58
2023/01/18 13:55:51;;;;;;;0.10;0.10;;;;;;;;;;5092994;28;20081;-57
2023/01/18 13:58:19;;;;;;;1.13;0.63;;;;;;;;;;5093897;28;20380;-58
2023/01/18 14:00:46;;;;;;;0.00;0.00;;;;;;;;;;5093208;28;20401;-59
2023/01/18 14:03:15;;;;;;;0.00;0.00;;;;;;;;;;5093062;28;20082;-59
2023/01/18 14:05:45;;;;;;;0.00;0.00;;;;;;;;;;5093289;28;20051;-56
2023/01/18 14:08:21;;;;;;;0.20;0.15;;;;;;;;;;5093657;28;20534;-58
2023/01/18 14:10:47;;;;;;;0.00;0.00;;;;;;;;;;5093260;28;20020;-60
2023/01/18 14:13:16;;;;;;;0.32;0.17;;;;;;;;;;5092543;28;20507;-57
2023/01/18 14:15:41;;;;;;;0.00;0.00;;;;;;;;;;5092879;28;20019;-58
2023/01/18 14:18:17;;;;;;;0.00;0.00;;;;;;;;;;5091695;28;20107;-57
2023/01/18 14:21:03;;;;;;;0.00;0.00;;;;;;;;;;5093148;28;20528;-57
2023/01/18 14:23:47;;;;;;;7.22;2.08;;;;;;;;;;5077112;28;20135;-59
2023/01/18 14:26:14;;;;;;;0.45;0.45;;;;;;;;;;5093773;28;20063;-57
2023/01/18 14:28:47;;;;;;;2.28;1.10;;;;;;;;;;5093447;28;20023;-58
2023/01/18 14:31:15;;;;;;;0.15;0.15;;;;;;;;;;5092608;28;20016;-60
2023/01/18 14:33:41;;;;;;;0.00;0.00;;;;;;;;;;5092928;28;20077;-60
2023/01/18 14:36:17;;;;;;;0.00;0.00;;;;;;;;;;5092910;28;20024;-58
2023/01/18 14:38:43;;;;;;;0.00;0.00;;;;;;;;;;5090950;28;20012;-59
2023/01/18 14:41:11;;;;;;;0.10;0.10;;;;;;;;;;5091130;28;20499;-58
2023/01/18 14:43:41;;;;;;;0.00;0.00;;;;;;;;;;5093400;28;20016;-57
2023/01/18 14:46:25;;;;;;;0.00;0.00;;;;;;;;;;5093070;28;20023;-57
2023/01/18 14:48:53;;;;;;;0.00;0.00;;;;;;;;;;5092553;28;20024;-58
2023/01/18 14:51:21;;;;;;;0.00;0.00;;;;;;;;;;5092009;28;20050;-57
2023/01/18 14:53:59;;;;;;;0.93;0.73;;;;;;;;;;5092201;28;20020;-59
2023/01/18 14:56:30;;;;;;;0.00;0.00;;;;;;;;;;5093239;28;20373;-58
2023/01/18 14:59:01;;;;;;;0.15;0.15;;;;;;;;;;5093828;28;20023;-59
2023/01/18 15:01:27;;;;;;;0.52;0.32;;;;;;;;;;5092806;28;20039;-59
2023/01/18 15:03:54;;;;;;;2.88;1.83;;;;;;;;;;5090806;28;20601;-58
2023/01/18 15:06:24;;;;;;;0.00;0.00;;;;;;;;;;5092313;28;20036;-57
2023/01/18 15:08:49;;;;;;;0.00;0.00;;;;;;;;;;5092124;28;20119;-58
2023/01/18 15:11:16;;;;;;;0.00;0.00;;;;;;;;;;5091867;28;20023;-58
2023/01/18 15:13:48;;;;;;;0.00;0.00;;;;;;;;;;5092263;28;20477;-59
2023/01/18 15:16:24;;;;;;;0.00;0.00;;;;;;;;;;5090634;28;20020;-57
2023/01/18 15:18:50;;;;;;;0.00;0.00;;;;;;;;;;5091274;28;20456;-57
2023/01/18 15:21:19;;;;;;;0.52;0.30;;;;;;;;;;5091785;28;20030;-61
2023/01/18 15:23:45;;;;;;;0.00;0.00;;;;;;;;;;5092702;28;20028;-58
2023/01/18 15:26:11;;;;;;;0.00;0.00;;;;;;;;;;5091148;28;20107;-58
2023/01/18 15:28:37;;;;;;;0.00;0.00;;;;;;;;;;5092302;28;20416;-57